sensor_id;sensor_type;location;lat;lon;timestamp;P1;durP1;ratioP1;P2;durP2;ratioP2
8151;SDS011;4117;53.622;9.958;2024-01-15T00:01:12;9.73;;;2.27;;
8151;SDS011;4117;53.622;9.958;2024-01-15T00:03:40;11.60;;;1.70;;
8151;SDS011;4117;53.622;9.958;2024-01-15T00:06:07;8.97;;;2.00;;
8151;SDS011;4117;53.622;9.958;2024-01-15T00:08:34;9.03;;;1.90;;
8151;SDS011;4117;53.622;9.958;2024-01-15T00:11:01;9.87;;;2.07;;
8151;SDS011;4117;53.622;9.958;2024-01-15T00:13:28;13.03;;;2.53;;
8151;SDS011;4117;53.622;9.958;2024-01-15T00:15:55;10.23;;;2.20;;
8151;SDS011;4117;53.622;9.958;2024-01-15T00:18:22;7.50;;;2.20;;
8151;SDS011;4117;53.622;9.958;2024-01-15T00:20:50;8.37;;;2.20;;
8151;SDS011;4117;53.622;9.958;2024-01-15T00:23:17;8.83;;;1.70;;
8151;SDS011;4117;53.622;9.958;2024-01-15T00:25:44;8.50;;;1.70;;
8151;SDS011;4117;53.622;9.958;2024-01-15T00:28:11;8.90;;;1.93;;
8151;SDS011;4117;53.622;9.958;2024-01-15T00:30:38;9.33;;;2.17;;
8151;SDS011;4117;53.622;9.958;2024-01-15T00:33:05;9.87;;;1.60;;
8151;SDS011;4117;53.622;9.958;2024-01-15T00:35:32;12.73;;;2.20;;
8151;SDS011;4117;53.622;9.958;2024-01-15T00:38:00;6.50;;;1.90;;
8151;SDS011;4117;53.622;9.958;2024-01-15T00:40:27;10.80;;;2.50;;
8151;SDS011;4117;53.622;9.958;2024-01-15T00:42:54;13.13;;;2.00;;
8151;SDS011;4117;53.622;9.958;2024-01-15T00:45:22;8.90;;;1.83;;
8151;SDS011;4117;53.622;9.958;2024-01-15T00:47:49;7.97;;;2.17;;
8151;SDS011;4117;53.622;9.958;2024-01-15T00:50:16;10.00;;;1.90;;
8151;SDS011;4117;53.622;9.958;2024-01-15T00:52:43;9.57;;;2.10;;
8151;SDS011;4117;53.622;9.958;2024-01-15T00:55:11;9.03;;;1.97;;
8151;SDS011;4117;53.622;9.958;2024-01-15T00:57:39;12.53;;;2.20;;
8151;SDS011;4117;53.622;9.958;2024-01-15T01:00:06;11.20;;;2.37;;
8151;SDS011;4117;53.622;9.958;2024-01-15T01:02:34;9.03;;;2.00;;
8151;SDS011;4117;53.622;9.958;2024-01-15T01:05:01;7.90;;;1.90;;
8151;SDS011;4117;53.622;9.958;2024-01-15T01:07:28;13.50;;;2.73;;
8151;SDS011;4117;53.622;9.958;2024-01-15T01:09:55;11.37;;;2.50;;
8151;SDS011;4117;53.622;9.958;2024-01-15T01:12:23;12.27;;;2.40;;
8151;SDS011;4117;53.622;9.958;2024-01-15T01:14:50;10.30;;;1.97;;
8151;SDS011;4117;53.622;9.958;2024-01-15T01:17:17;11.17;;;2.70;;
8151;SDS011;4117;53.622;9.958;2024-01-15T01:19:44;11.03;;;2.20;;
8151;SDS011;4117;53.622;9.958;2024-01-15T01:22:11;14.73;;;2.47;;
8151;SDS011;4117;53.622;9.958;2024-01-15T01:24:38;10.30;;;2.00;;
8151;SDS011;4117;53.622;9.958;2024-01-15T01:27:05;13.47;;;2.20;;
8151;SDS011;4117;53.622;9.958;2024-01-15T01:29:34;13.20;;;2.27;;
8151;SDS011;4117;53.622;9.958;2024-01-15T01:32:01;8.63;;;2.13;;
8151;SDS011;4117;53.622;9.958;2024-01-15T01:34:28;13.40;;;2.50;;
8151;SDS011;4117;53.622;9.958;2024-01-15T01:36:56;11.87;;;2.43;;
8151;SDS011;4117;53.622;9.958;2024-01-15T01:39:23;10.43;;;1.93;;
8151;SDS011;4117;53.622;9.958;2024-01-15T01:41:49;13.50;;;2.20;;
8151;SDS011;4117;53.622;9.958;2024-01-15T01:44:16;9.10;;;2.10;;
8151;SDS011;4117;53.622;9.958;2024-01-15T01:46:44;11.37;;;1.97;;
8151;SDS011;4117;53.622;9.958;2024-01-15T01:49:11;7.33;;;1.93;;
8151;SDS011;4117;53.622;9.958;2024-01-15T01:51:38;9.83;;;2.20;;
8151;SDS011;4117;53.622;9.958;2024-01-15T01:54:05;6.70;;;1.50;;
8151;SDS011;4117;53.622;9.958;2024-01-15T01:56:36;5.80;;;1.67;;
8151;SDS011;4117;53.622;9.958;2024-01-15T01:59:03;13.53;;;2.00;;
8151;SDS011;4117;53.622;9.958;2024-01-15T02:01:31;7.80;;;1.60;;
8151;SDS011;4117;53.622;9.958;2024-01-15T02:04:00;7.00;;;1.97;;
8151;SDS011;4117;53.622;9.958;2024-01-15T02:06:27;8.70;;;2.00;;
8151;SDS011;4117;53.622;9.958;2024-01-15T02:08:54;8.17;;;2.13;;
8151;SDS011;4117;53.622;9.958;2024-01-15T02:11:21;11.57;;;2.30;;
8151;SDS011;4117;53.622;9.958;2024-01-15T02:13:48;15.70;;;2.37;;
8151;SDS011;4117;53.622;9.958;2024-01-15T02:16:16;8.03;;;1.80;;
8151;SDS011;4117;53.622;9.958;2024-01-15T02:18:43;7.33;;;1.90;;
8151;SDS011;4117;53.622;9.958;2024-01-15T02:21:12;9.47;;;1.90;;
8151;SDS011;4117;53.622;9.958;2024-01-15T02:23:40;9.57;;;2.30;;
8151;SDS011;4117;53.622;9.958;2024-01-15T02:26:08;6.97;;;1.70;;
8151;SDS011;4117;53.622;9.958;2024-01-15T02:28:35;3.87;;;1.10;;
8151;SDS011;4117;53.622;9.958;2024-01-15T02:31:03;5.40;;;1.70;;
8151;SDS011;4117;53.622;9.958;2024-01-15T02:33:30;4.37;;;1.70;;
8151;SDS011;4117;53.622;9.958;2024-01-15T02:35:57;8.33;;;2.07;;
8151;SDS011;4117;53.622;9.958;2024-01-15T02:38:24;6.43;;;2.07;;
8151;SDS011;4117;53.622;9.958;2024-01-15T02:40:52;9.67;;;2.57;;
8151;SDS011;4117;53.622;9.958;2024-01-15T02:43:19;6.27;;;1.77;;
8151;SDS011;4117;53.622;9.958;2024-01-15T02:45:46;11.13;;;2.47;;
8151;SDS011;4117;53.622;9.958;2024-01-15T02:48:13;7.27;;;2.37;;
8151;SDS011;4117;53.622;9.958;2024-01-15T02:50:40;12.17;;;2.40;;
8151;SDS011;4117;53.622;9.958;2024-01-15T02:53:07;10.00;;;2.33;;
8151;SDS011;4117;53.622;9.958;2024-01-15T02:55:34;8.37;;;1.93;;
8151;SDS011;4117;53.622;9.958;2024-01-15T02:58:03;3.33;;;1.50;;
8151;SDS011;4117;53.622;9.958;2024-01-15T03:00:30;4.93;;;1.50;;
8151;SDS011;4117;53.622;9.958;2024-01-15T03:02:57;11.80;;;2.40;;
8151;SDS011;4117;53.622;9.958;2024-01-15T03:05:24;8.57;;;2.10;;
8151;SDS011;4117;53.622;9.958;2024-01-15T03:07:50;9.33;;;1.90;;
8151;SDS011;4117;53.622;9.958;2024-01-15T03:10:20;9.97;;;2.53;;
8151;SDS011;4117;53.622;9.958;2024-01-15T03:12:47;9.73;;;1.97;;
8151;SDS011;4117;53.622;9.958;2024-01-15T03:15:15;8.43;;;1.80;;
8151;SDS011;4117;53.622;9.958;2024-01-15T03:17:43;7.40;;;2.17;;
8151;SDS011;4117;53.622;9.958;2024-01-15T03:20:11;11.73;;;2.97;;
8151;SDS011;4117;53.622;9.958;2024-01-15T03:22:38;7.83;;;1.93;;
8151;SDS011;4117;53.622;9.958;2024-01-15T03:25:05;11.50;;;2.10;;
8151;SDS011;4117;53.622;9.958;2024-01-15T03:27:33;10.03;;;2.77;;
8151;SDS011;4117;53.622;9.958;2024-01-15T03:30:00;10.20;;;2.10;;
8151;SDS011;4117;53.622;9.958;2024-01-15T03:32:29;12.57;;;2.63;;
8151;SDS011;4117;53.622;9.958;2024-01-15T03:34:56;12.50;;;2.50;;
8151;SDS011;4117;53.622;9.958;2024-01-15T03:37:23;17.30;;;2.60;;
8151;SDS011;4117;53.622;9.958;2024-01-15T03:39:50;16.57;;;2.50;;
8151;SDS011;4117;53.622;9.958;2024-01-15T03:42:17;13.67;;;2.57;;
8151;SDS011;4117;53.622;9.958;2024-01-15T03:44:44;15.10;;;2.30;;
8151;SDS011;4117;53.622;9.958;2024-01-15T03:47:11;14.07;;;2.57;;
8151;SDS011;4117;53.622;9.958;2024-01-15T03:49:39;16.00;;;2.63;;
8151;SDS011;4117;53.622;9.958;2024-01-15T03:52:06;15.13;;;2.70;;
8151;SDS011;4117;53.622;9.958;2024-01-15T03:54:33;16.53;;;2.67;;
8151;SDS011;4117;53.622;9.958;2024-01-15T03:57:00;13.67;;;2.50;;
8151;SDS011;4117;53.622;9.958;2024-01-15T03:59:27;15.23;;;2.27;;
8151;SDS011;4117;53.622;9.958;2024-01-15T04:01:54;13.73;;;2.50;;
8151;SDS011;4117;53.622;9.958;2024-01-15T04:04:21;15.40;;;2.67;;
8151;SDS011;4117;53.622;9.958;2024-01-15T04:06:49;14.00;;;2.80;;
8151;SDS011;4117;53.622;9.958;2024-01-15T04:09:16;19.03;;;2.87;;
8151;SDS011;4117;53.622;9.958;2024-01-15T04:11:43;14.73;;;2.67;;
8151;SDS011;4117;53.622;9.958;2024-01-15T04:14:10;10.97;;;2.53;;
8151;SDS011;4117;53.622;9.958;2024-01-15T04:16:37;11.60;;;2.10;;
8151;SDS011;4117;53.622;9.958;2024-01-15T04:19:04;13.77;;;2.53;;
8151;SDS011;4117;53.622;9.958;2024-01-15T04:21:31;16.13;;;2.73;;
8151;SDS011;4117;53.622;9.958;2024-01-15T04:23:59;13.20;;;2.17;;
8151;SDS011;4117;53.622;9.958;2024-01-15T04:26:26;7.90;;;1.97;;
8151;SDS011;4117;53.622;9.958;2024-01-15T04:28:53;13.97;;;2.37;;
8151;SDS011;4117;53.622;9.958;2024-01-15T04:31:21;19.13;;;2.63;;
8151;SDS011;4117;53.622;9.958;2024-01-15T04:33:48;15.10;;;2.43;;
8151;SDS011;4117;53.622;9.958;2024-01-15T04:36:15;13.53;;;2.77;;
8151;SDS011;4117;53.622;9.958;2024-01-15T04:38:42;14.63;;;2.53;;
8151;SDS011;4117;53.622;9.958;2024-01-15T04:41:11;14.17;;;2.70;;
8151;SDS011;4117;53.622;9.958;2024-01-15T04:43:38;14.23;;;2.50;;
8151;SDS011;4117;53.622;9.958;2024-01-15T04:46:05;15.63;;;3.17;;
8151;SDS011;4117;53.622;9.958;2024-01-15T04:48:32;18.50;;;3.17;;
8151;SDS011;4117;53.622;9.958;2024-01-15T04:50:59;15.27;;;3.00;;
8151;SDS011;4117;53.622;9.958;2024-01-15T04:53:26;21.83;;;3.40;;
8151;SDS011;4117;53.622;9.958;2024-01-15T04:55:53;14.23;;;2.40;;
8151;SDS011;4117;53.622;9.958;2024-01-15T04:58:21;20.40;;;3.30;;
8151;SDS011;4117;53.622;9.958;2024-01-15T05:00:50;15.63;;;3.00;;
8151;SDS011;4117;53.622;9.958;2024-01-15T05:03:17;20.57;;;3.13;;
8151;SDS011;4117;53.622;9.958;2024-01-15T05:05:45;23.30;;;3.63;;
8151;SDS011;4117;53.622;9.958;2024-01-15T05:08:12;17.50;;;3.17;;
8151;SDS011;4117;53.622;9.958;2024-01-15T05:10:39;20.10;;;4.17;;
8151;SDS011;4117;53.622;9.958;2024-01-15T05:13:05;20.20;;;3.87;;
8151;SDS011;4117;53.622;9.958;2024-01-15T05:15:34;19.47;;;3.33;;
8151;SDS011;4117;53.622;9.958;2024-01-15T05:18:01;22.40;;;3.53;;
8151;SDS011;4117;53.622;9.958;2024-01-15T05:20:28;20.20;;;4.00;;
8151;SDS011;4117;53.622;9.958;2024-01-15T05:22:54;21.53;;;3.67;;
8151;SDS011;4117;53.622;9.958;2024-01-15T05:25:21;16.47;;;3.50;;
8151;SDS011;4117;53.622;9.958;2024-01-15T05:27:48;17.50;;;3.27;;
8151;SDS011;4117;53.622;9.958;2024-01-15T05:30:15;20.57;;;3.23;;
8151;SDS011;4117;53.622;9.958;2024-01-15T05:32:44;16.00;;;3.63;;
8151;SDS011;4117;53.622;9.958;2024-01-15T05:35:11;20.47;;;3.43;;
8151;SDS011;4117;53.622;9.958;2024-01-15T05:37:39;15.17;;;3.43;;
8151;SDS011;4117;53.622;9.958;2024-01-15T05:40:09;19.70;;;3.40;;
8151;SDS011;4117;53.622;9.958;2024-01-15T05:42:37;17.67;;;3.37;;
8151;SDS011;4117;53.622;9.958;2024-01-15T05:45:04;16.13;;;3.30;;
8151;SDS011;4117;53.622;9.958;2024-01-15T05:47:32;18.37;;;3.63;;
8151;SDS011;4117;53.622;9.958;2024-01-15T05:50:00;20.77;;;3.10;;
8151;SDS011;4117;53.622;9.958;2024-01-15T05:52:27;15.93;;;3.80;;
8151;SDS011;4117;53.622;9.958;2024-01-15T05:54:54;22.70;;;3.43;;
8151;SDS011;4117;53.622;9.958;2024-01-15T05:57:21;14.17;;;2.87;;
8151;SDS011;4117;53.622;9.958;2024-01-15T05:59:48;17.43;;;3.50;;
8151;SDS011;4117;53.622;9.958;2024-01-15T06:02:15;19.77;;;3.73;;
8151;SDS011;4117;53.622;9.958;2024-01-15T06:04:42;24.00;;;3.40;;
8151;SDS011;4117;53.622;9.958;2024-01-15T06:07:10;20.83;;;3.70;;
8151;SDS011;4117;53.622;9.958;2024-01-15T06:09:37;18.20;;;2.90;;
8151;SDS011;4117;53.622;9.958;2024-01-15T06:12:04;19.27;;;3.43;;
8151;SDS011;4117;53.622;9.958;2024-01-15T06:14:33;14.67;;;3.00;;
8151;SDS011;4117;53.622;9.958;2024-01-15T06:17:00;23.70;;;3.50;;
8151;SDS011;4117;53.622;9.958;2024-01-15T06:19:27;20.90;;;3.87;;
8151;SDS011;4117;53.622;9.958;2024-01-15T06:21:54;19.83;;;3.57;;
8151;SDS011;4117;53.622;9.958;2024-01-15T06:24:22;15.27;;;3.07;;
8151;SDS011;4117;53.622;9.958;2024-01-15T06:26:49;17.33;;;3.43;;
8151;SDS011;4117;53.622;9.958;2024-01-15T06:29:16;17.63;;;3.57;;
8151;SDS011;4117;53.622;9.958;2024-01-15T06:31:42;20.87;;;3.23;;
8151;SDS011;4117;53.622;9.958;2024-01-15T06:34:09;18.33;;;3.43;;
8151;SDS011;4117;53.622;9.958;2024-01-15T06:36:36;18.67;;;3.23;;
8151;SDS011;4117;53.622;9.958;2024-01-15T06:39:03;15.27;;;2.97;;
8151;SDS011;4117;53.622;9.958;2024-01-15T06:41:31;16.77;;;2.70;;
8151;SDS011;4117;53.622;9.958;2024-01-15T06:43:58;10.13;;;2.50;;
8151;SDS011;4117;53.622;9.958;2024-01-15T06:46:25;11.70;;;2.40;;
8151;SDS011;4117;53.622;9.958;2024-01-15T06:48:52;8.63;;;2.40;;
8151;SDS011;4117;53.622;9.958;2024-01-15T06:51:19;11.20;;;2.10;;
8151;SDS011;4117;53.622;9.958;2024-01-15T06:53:46;14.77;;;2.40;;
8151;SDS011;4117;53.622;9.958;2024-01-15T06:56:13;14.93;;;2.70;;
8151;SDS011;4117;53.622;9.958;2024-01-15T06:58:41;14.37;;;2.57;;
8151;SDS011;4117;53.622;9.958;2024-01-15T07:01:08;15.03;;;2.40;;
8151;SDS011;4117;53.622;9.958;2024-01-15T07:03:35;10.53;;;2.43;;
8151;SDS011;4117;53.622;9.958;2024-01-15T07:06:02;13.30;;;2.27;;
8151;SDS011;4117;53.622;9.958;2024-01-15T07:08:29;13.03;;;2.67;;
8151;SDS011;4117;53.622;9.958;2024-01-15T07:10:56;13.03;;;2.80;;
8151;SDS011;4117;53.622;9.958;2024-01-15T07:13:23;13.67;;;2.53;;
8151;SDS011;4117;53.622;9.958;2024-01-15T07:15:51;10.77;;;2.40;;
8151;SDS011;4117;53.622;9.958;2024-01-15T07:18:18;13.27;;;2.50;;
8151;SDS011;4117;53.622;9.958;2024-01-15T07:20:45;18.13;;;2.63;;
8151;SDS011;4117;53.622;9.958;2024-01-15T07:23:12;9.63;;;2.00;;
8151;SDS011;4117;53.622;9.958;2024-01-15T07:25:39;11.33;;;2.23;;
8151;SDS011;4117;53.622;9.958;2024-01-15T07:28:06;12.13;;;2.40;;
8151;SDS011;4117;53.622;9.958;2024-01-15T07:30:33;10.37;;;2.77;;
8151;SDS011;4117;53.622;9.958;2024-01-15T07:33:01;13.60;;;2.80;;
8151;SDS011;4117;53.622;9.958;2024-01-15T07:35:29;11.73;;;2.37;;
8151;SDS011;4117;53.622;9.958;2024-01-15T07:37:56;8.50;;;2.00;;
8151;SDS011;4117;53.622;9.958;2024-01-15T07:40:23;7.53;;;2.10;;
8151;SDS011;4117;53.622;9.958;2024-01-15T07:42:50;7.10;;;1.90;;
8151;SDS011;4117;53.622;9.958;2024-01-15T07:45:17;11.13;;;2.23;;
8151;SDS011;4117;53.622;9.958;2024-01-15T07:47:44;7.40;;;1.97;;
8151;SDS011;4117;53.622;9.958;2024-01-15T07:50:12;7.90;;;1.80;;
8151;SDS011;4117;53.622;9.958;2024-01-15T07:52:39;9.37;;;2.17;;
8151;SDS011;4117;53.622;9.958;2024-01-15T07:55:07;6.33;;;1.70;;
8151;SDS011;4117;53.622;9.958;2024-01-15T07:57:34;8.33;;;1.80;;
8151;SDS011;4117;53.622;9.958;2024-01-15T08:00:02;8.70;;;1.70;;
8151;SDS011;4117;53.622;9.958;2024-01-15T08:02:33;10.63;;;1.97;;
8151;SDS011;4117;53.622;9.958;2024-01-15T08:05:00;8.10;;;1.93;;
8151;SDS011;4117;53.622;9.958;2024-01-15T08:07:28;7.70;;;2.10;;
8151;SDS011;4117;53.622;9.958;2024-01-15T08:09:55;10.40;;;1.93;;
8151;SDS011;4117;53.622;9.958;2024-01-15T08:12:22;8.57;;;2.23;;
8151;SDS011;4117;53.622;9.958;2024-01-15T08:14:48;7.27;;;2.00;;
8151;SDS011;4117;53.622;9.958;2024-01-15T08:17:15;12.63;;;2.17;;
8151;SDS011;4117;53.622;9.958;2024-01-15T08:19:42;13.77;;;2.07;;
8151;SDS011;4117;53.622;9.958;2024-01-15T08:22:10;10.43;;;2.40;;
8151;SDS011;4117;53.622;9.958;2024-01-15T08:24:38;8.40;;;1.90;;
8151;SDS011;4117;53.622;9.958;2024-01-15T08:27:05;6.57;;;1.80;;
8151;SDS011;4117;53.622;9.958;2024-01-15T08:29:32;9.30;;;2.17;;
8151;SDS011;4117;53.622;9.958;2024-01-15T08:32:00;9.37;;;2.20;;
8151;SDS011;4117;53.622;9.958;2024-01-15T08:34:27;10.97;;;1.97;;
8151;SDS011;4117;53.622;9.958;2024-01-15T08:36:54;14.67;;;2.40;;
8151;SDS011;4117;53.622;9.958;2024-01-15T08:39:21;12.47;;;2.23;;
8151;SDS011;4117;53.622;9.958;2024-01-15T08:41:49;8.00;;;1.87;;
8151;SDS011;4117;53.622;9.958;2024-01-15T08:44:16;9.37;;;2.00;;
8151;SDS011;4117;53.622;9.958;2024-01-15T08:46:43;10.77;;;2.27;;
8151;SDS011;4117;53.622;9.958;2024-01-15T08:49:10;7.90;;;1.70;;
8151;SDS011;4117;53.622;9.958;2024-01-15T08:51:37;7.33;;;1.53;;
8151;SDS011;4117;53.622;9.958;2024-01-15T08:54:04;10.53;;;1.83;;
8151;SDS011;4117;53.622;9.958;2024-01-15T08:56:33;7.87;;;1.83;;
8151;SDS011;4117;53.622;9.958;2024-01-15T08:59:01;9.17;;;1.83;;
8151;SDS011;4117;53.622;9.958;2024-01-15T09:01:28;9.40;;;2.07;;
8151;SDS011;4117;53.622;9.958;2024-01-15T09:03:56;9.27;;;1.90;;
8151;SDS011;4117;53.622;9.958;2024-01-15T09:06:23;9.27;;;1.80;;
8151;SDS011;4117;53.622;9.958;2024-01-15T09:08:49;7.50;;;1.90;;
8151;SDS011;4117;53.622;9.958;2024-01-15T09:11:16;9.03;;;1.97;;
8151;SDS011;4117;53.622;9.958;2024-01-15T09:13:43;11.70;;;2.33;;
8151;SDS011;4117;53.622;9.958;2024-01-15T09:16:11;9.10;;;2.03;;
8151;SDS011;4117;53.622;9.958;2024-01-15T09:18:38;11.77;;;1.80;;
8151;SDS011;4117;53.622;9.958;2024-01-15T09:21:05;13.43;;;2.50;;
8151;SDS011;4117;53.622;9.958;2024-01-15T09:23:32;9.33;;;1.93;;
8151;SDS011;4117;53.622;9.958;2024-01-15T09:26:00;7.43;;;1.50;;
8151;SDS011;4117;53.622;9.958;2024-01-15T09:28:27;6.53;;;2.00;;
8151;SDS011;4117;53.622;9.958;2024-01-15T09:30:54;6.17;;;1.80;;
8151;SDS011;4117;53.622;9.958;2024-01-15T09:33:22;8.00;;;2.13;;
8151;SDS011;4117;53.622;9.958;2024-01-15T09:35:49;8.77;;;1.80;;
8151;SDS011;4117;53.622;9.958;2024-01-15T09:38:15;8.07;;;1.80;;
8151;SDS011;4117;53.622;9.958;2024-01-15T09:40:43;7.53;;;1.93;;
8151;SDS011;4117;53.622;9.958;2024-01-15T09:43:12;6.60;;;1.90;;
8151;SDS011;4117;53.622;9.958;2024-01-15T09:45:40;4.33;;;1.40;;
8151;SDS011;4117;53.622;9.958;2024-01-15T09:48:08;8.10;;;1.80;;
8151;SDS011;4117;53.622;9.958;2024-01-15T09:50:36;5.90;;;1.70;;
8151;SDS011;4117;53.622;9.958;2024-01-15T09:53:03;9.80;;;1.80;;
8151;SDS011;4117;53.622;9.958;2024-01-15T09:55:31;9.73;;;1.70;;
8151;SDS011;4117;53.622;9.958;2024-01-15T09:57:59;9.80;;;2.13;;
8151;SDS011;4117;53.622;9.958;2024-01-15T10:00:27;6.83;;;2.50;;
8151;SDS011;4117;53.622;9.958;2024-01-15T10:02:56;9.70;;;2.10;;
8151;SDS011;4117;53.622;9.958;2024-01-15T10:05:25;13.20;;;2.27;;
8151;SDS011;4117;53.622;9.958;2024-01-15T10:07:53;9.20;;;1.97;;
8151;SDS011;4117;53.622;9.958;2024-01-15T10:10:22;7.07;;;1.77;;
8151;SDS011;4117;53.622;9.958;2024-01-15T10:12:52;4.03;;;1.33;;
8151;SDS011;4117;53.622;9.958;2024-01-15T10:15:21;11.83;;;2.20;;
8151;SDS011;4117;53.622;9.958;2024-01-15T10:17:50;9.53;;;2.03;;
8151;SDS011;4117;53.622;9.958;2024-01-15T10:20:17;12.70;;;2.30;;
8151;SDS011;4117;53.622;9.958;2024-01-15T10:22:45;5.97;;;2.20;;
8151;SDS011;4117;53.622;9.958;2024-01-15T10:25:14;9.30;;;2.30;;
8151;SDS011;4117;53.622;9.958;2024-01-15T10:27:41;9.70;;;2.10;;
8151;SDS011;4117;53.622;9.958;2024-01-15T10:30:08;8.13;;;1.90;;
8151;SDS011;4117;53.622;9.958;2024-01-15T10:32:36;8.73;;;1.90;;
8151;SDS011;4117;53.622;9.958;2024-01-15T10:35:04;5.90;;;1.50;;
8151;SDS011;4117;53.622;9.958;2024-01-15T10:37:33;9.03;;;1.80;;
8151;SDS011;4117;53.622;9.958;2024-01-15T10:40:01;4.77;;;1.30;;
8151;SDS011;4117;53.622;9.958;2024-01-15T10:42:32;7.10;;;2.07;;
8151;SDS011;4117;53.622;9.958;2024-01-15T10:44:59;6.07;;;1.77;;
8151;SDS011;4117;53.622;9.958;2024-01-15T10:47:26;5.00;;;1.13;;
8151;SDS011;4117;53.622;9.958;2024-01-15T10:49:53;4.47;;;1.40;;
8151;SDS011;4117;53.622;9.958;2024-01-15T10:52:20;8.50;;;1.63;;
8151;SDS011;4117;53.622;9.958;2024-01-15T10:54:47;6.50;;;1.60;;
8151;SDS011;4117;53.622;9.958;2024-01-15T10:57:16;6.17;;;1.57;;
8151;SDS011;4117;53.622;9.958;2024-01-15T10:59:45;4.47;;;1.40;;
8151;SDS011;4117;53.622;9.958;2024-01-15T11:02:12;2.83;;;1.30;;
8151;SDS011;4117;53.622;9.958;2024-01-15T11:04:40;4.07;;;1.50;;
8151;SDS011;4117;53.622;9.958;2024-01-15T11:07:07;3.10;;;1.30;;
8151;SDS011;4117;53.622;9.958;2024-01-15T11:09:36;3.53;;;1.50;;
8151;SDS011;4117;53.622;9.958;2024-01-15T11:12:06;4.63;;;1.47;;
8151;SDS011;4117;53.622;9.958;2024-01-15T11:14:35;4.50;;;1.40;;
8151;SDS011;4117;53.622;9.958;2024-01-15T11:17:06;8.27;;;1.50;;
8151;SDS011;4117;53.622;9.958;2024-01-15T11:19:37;7.57;;;1.90;;
8151;SDS011;4117;53.622;9.958;2024-01-15T11:22:06;5.47;;;1.73;;
8151;SDS011;4117;53.622;9.958;2024-01-15T11:24:34;4.00;;;1.40;;
8151;SDS011;4117;53.622;9.958;2024-01-15T11:27:02;5.57;;;1.90;;
8151;SDS011;4117;53.622;9.958;2024-01-15T11:29:30;6.93;;;1.90;;
8151;SDS011;4117;53.622;9.958;2024-01-15T11:32:00;5.43;;;2.03;;
8151;SDS011;4117;53.622;9.958;2024-01-15T11:37:23;8.30;;;2.03;;
8151;SDS011;4117;53.622;9.958;2024-01-15T11:39:51;7.00;;;1.40;;
8151;SDS011;4117;53.622;9.958;2024-01-15T11:42:20;7.83;;;1.60;;
8151;SDS011;4117;53.622;9.958;2024-01-15T11:44:48;9.57;;;2.30;;
8151;SDS011;4117;53.622;9.958;2024-01-15T11:47:15;8.70;;;1.80;;
8151;SDS011;4117;53.622;9.958;2024-01-15T11:50:05;3.80;;;1.57;;
8151;SDS011;4117;53.622;9.958;2024-01-15T11:52:34;8.63;;;2.40;;
8151;SDS011;4117;53.622;9.958;2024-01-15T11:55:05;5.60;;;2.00;;
8151;SDS011;4117;53.622;9.958;2024-01-15T11:57:40;8.13;;;2.80;;
8151;SDS011;4117;53.622;9.958;2024-01-15T12:00:09;4.33;;;1.90;;
8151;SDS011;4117;53.622;9.958;2024-01-15T12:02:37;6.00;;;1.73;;
8151;SDS011;4117;53.622;9.958;2024-01-15T12:05:07;8.07;;;1.90;;
8151;SDS011;4117;53.622;9.958;2024-01-15T12:07:34;4.40;;;1.80;;
8151;SDS011;4117;53.622;9.958;2024-01-15T12:10:01;8.87;;;1.97;;
8151;SDS011;4117;53.622;9.958;2024-01-15T12:12:39;8.23;;;2.10;;
8151;SDS011;4117;53.622;9.958;2024-01-15T12:15:15;4.73;;;1.40;;
8151;SDS011;4117;53.622;9.958;2024-01-15T12:17:42;6.67;;;1.70;;
8151;SDS011;4117;53.622;9.958;2024-01-15T12:20:11;7.83;;;1.97;;
8151;SDS011;4117;53.622;9.958;2024-01-15T12:22:38;8.37;;;1.80;;
8151;SDS011;4117;53.622;9.958;2024-01-15T12:25:05;10.03;;;2.10;;
8151;SDS011;4117;53.622;9.958;2024-01-15T12:27:33;5.77;;;1.70;;
8151;SDS011;4117;53.622;9.958;2024-01-15T12:30:00;4.50;;;1.80;;
8151;SDS011;4117;53.622;9.958;2024-01-15T12:32:27;6.67;;;1.73;;
8151;SDS011;4117;53.622;9.958;2024-01-15T12:34:55;4.37;;;1.43;;
8151;SDS011;4117;53.622;9.958;2024-01-15T12:37:24;4.47;;;1.57;;
8151;SDS011;4117;53.622;9.958;2024-01-15T12:39:51;7.47;;;1.90;;
8151;SDS011;4117;53.622;9.958;2024-01-15T12:42:20;3.67;;;1.70;;
8151;SDS011;4117;53.622;9.958;2024-01-15T12:44:48;1.90;;;1.43;;
8151;SDS011;4117;53.622;9.958;2024-01-15T12:47:15;4.87;;;1.80;;
8151;SDS011;4117;53.622;9.958;2024-01-15T12:49:46;5.67;;;1.87;;
8151;SDS011;4117;53.622;9.958;2024-01-15T12:52:14;6.23;;;2.00;;
8151;SDS011;4117;53.622;9.958;2024-01-15T12:54:42;3.27;;;1.87;;
8151;SDS011;4117;53.622;9.958;2024-01-15T12:57:09;4.77;;;1.80;;
8151;SDS011;4117;53.622;9.958;2024-01-15T12:59:36;4.90;;;2.03;;
8151;SDS011;4117;53.622;9.958;2024-01-15T13:02:03;5.60;;;1.80;;
8151;SDS011;4117;53.622;9.958;2024-01-15T13:04:30;3.83;;;1.60;;
8151;SDS011;4117;53.622;9.958;2024-01-15T13:06:57;3.10;;;1.40;;
8151;SDS011;4117;53.622;9.958;2024-01-15T13:09:24;2.53;;;1.50;;
8151;SDS011;4117;53.622;9.958;2024-01-15T13:11:52;2.40;;;1.60;;
8151;SDS011;4117;53.622;9.958;2024-01-15T13:14:19;5.50;;;1.83;;
8151;SDS011;4117;53.622;9.958;2024-01-15T13:16:46;2.17;;;1.73;;
8151;SDS011;4117;53.622;9.958;2024-01-15T13:19:13;5.37;;;1.60;;
8151;SDS011;4117;53.622;9.958;2024-01-15T13:21:40;2.63;;;1.40;;
8151;SDS011;4117;53.622;9.958;2024-01-15T13:24:08;3.97;;;1.57;;
8151;SDS011;4117;53.622;9.958;2024-01-15T13:26:36;4.33;;;1.50;;
8151;SDS011;4117;53.622;9.958;2024-01-15T13:29:04;2.10;;;1.57;;
8151;SDS011;4117;53.622;9.958;2024-01-15T13:31:31;3.37;;;1.77;;
8151;SDS011;4117;53.622;9.958;2024-01-15T13:33:59;3.47;;;1.80;;
8151;SDS011;4117;53.622;9.958;2024-01-15T13:36:26;6.63;;;1.80;;
8151;SDS011;4117;53.622;9.958;2024-01-15T13:38:53;3.10;;;1.60;;
8151;SDS011;4117;53.622;9.958;2024-01-15T13:41:20;3.50;;;1.80;;
8151;SDS011;4117;53.622;9.958;2024-01-15T13:43:52;5.03;;;1.80;;
8151;SDS011;4117;53.622;9.958;2024-01-15T13:46:22;4.40;;;1.50;;
8151;SDS011;4117;53.622;9.958;2024-01-15T13:48:51;5.90;;;1.40;;
8151;SDS011;4117;53.622;9.958;2024-01-15T13:51:18;6.37;;;1.70;;
8151;SDS011;4117;53.622;9.958;2024-01-15T13:53:46;8.13;;;1.60;;
8151;SDS011;4117;53.622;9.958;2024-01-15T13:56:13;3.27;;;1.60;;
8151;SDS011;4117;53.622;9.958;2024-01-15T13:58:41;4.90;;;1.60;;
8151;SDS011;4117;53.622;9.958;2024-01-15T14:01:09;3.73;;;1.30;;
8151;SDS011;4117;53.622;9.958;2024-01-15T14:03:37;5.20;;;1.70;;
8151;SDS011;4117;53.622;9.958;2024-01-15T14:06:04;4.67;;;1.90;;
8151;SDS011;4117;53.622;9.958;2024-01-15T14:08:34;2.70;;;1.60;;
8151;SDS011;4117;53.622;9.958;2024-01-15T14:11:01;2.87;;;1.70;;
8151;SDS011;4117;53.622;9.958;2024-01-15T14:13:28;3.77;;;1.80;;
8151;SDS011;4117;53.622;9.958;2024-01-15T14:15:55;4.50;;;1.70;;
8151;SDS011;4117;53.622;9.958;2024-01-15T14:18:22;3.60;;;1.70;;
8151;SDS011;4117;53.622;9.958;2024-01-15T14:20:50;3.77;;;1.60;;
8151;SDS011;4117;53.622;9.958;2024-01-15T14:23:18;3.90;;;1.80;;
8151;SDS011;4117;53.622;9.958;2024-01-15T14:25:45;3.77;;;1.80;;
8151;SDS011;4117;53.622;9.958;2024-01-15T14:28:12;3.97;;;1.70;;
8151;SDS011;4117;53.622;9.958;2024-01-15T14:30:39;3.43;;;1.70;;
8151;SDS011;4117;53.622;9.958;2024-01-15T14:33:06;2.17;;;1.40;;
8151;SDS011;4117;53.622;9.958;2024-01-15T14:35:33;2.33;;;1.60;;
8151;SDS011;4117;53.622;9.958;2024-01-15T14:38:01;2.60;;;1.60;;
8151;SDS011;4117;53.622;9.958;2024-01-15T14:40:28;2.30;;;1.53;;
8151;SDS011;4117;53.622;9.958;2024-01-15T14:42:55;2.73;;;1.53;;
8151;SDS011;4117;53.622;9.958;2024-01-15T14:45:22;3.13;;;1.70;;
8151;SDS011;4117;53.622;9.958;2024-01-15T14:47:52;3.07;;;1.70;;
8151;SDS011;4117;53.622;9.958;2024-01-15T14:50:19;4.97;;;1.70;;
8151;SDS011;4117;53.622;9.958;2024-01-15T14:52:46;1.90;;;1.30;;
8151;SDS011;4117;53.622;9.958;2024-01-15T14:55:14;2.10;;;1.57;;
8151;SDS011;4117;53.622;9.958;2024-01-15T14:57:41;3.77;;;1.70;;
8151;SDS011;4117;53.622;9.958;2024-01-15T15:00:08;2.43;;;1.70;;
8151;SDS011;4117;53.622;9.958;2024-01-15T15:02:37;2.57;;;1.83;;
8151;SDS011;4117;53.622;9.958;2024-01-15T15:05:04;6.63;;;1.90;;
8151;SDS011;4117;53.622;9.958;2024-01-15T15:07:32;3.97;;;1.80;;
8151;SDS011;4117;53.622;9.958;2024-01-15T15:10:01;3.53;;;2.00;;
8151;SDS011;4117;53.622;9.958;2024-01-15T15:12:31;5.63;;;2.00;;
8151;SDS011;4117;53.622;9.958;2024-01-15T15:14:58;3.27;;;1.70;;